Terminal Aerodrome Forecast
Issued by NWS

Home | Current Version | Previous Version | Text Only | Print | Product List | Glossary On
Versions: 1 2 3 4 5 6 7 8 9 10 11 12 13 14 15 16 17 18 19 20 21 22 23 24 25 26 27 28 29 30 31 32 33 34 35 36 37 38 39 40 41 42 43 44 45 46 47 48 49 50
000
FTUS43 KMKX 011129
TAFENW
TAF
KENW 011129Z 0112/0212 24005KT P6SM SKC
     FM011800 11006KT P6SM SCT050
     FM012100 13007KT P6SM VCTS BKN050CB
     FM020300 00000KT P6SM SCT080
     FM020700 00000KT 2SM BR SCT100
     FM020900 00000KT 1SM BR SKC=

USA.gov is the U.S. government's official web portal to all federal, state and local government web resources and services.